createdAt,value
2017-12-21T00:00:40.726Z,0
2017-12-21T00:01:41.167Z,0
2017-12-21T00:02:40.633Z,0
2017-12-21T00:03:41.288Z,0
2017-12-21T00:04:41.025Z,0
2017-12-21T00:05:41.142Z,0
2017-12-21T00:06:41.711Z,0
2017-12-21T00:07:41.193Z,0
2017-12-21T00:08:41.584Z,0
2017-12-21T00:09:41.198Z,0
2017-12-21T00:10:40.742Z,0
2017-12-21T00:11:40.716Z,0
2017-12-21T00:12:40.523Z,0
2017-12-21T00:13:41.182Z,0
2017-12-21T00:14:40.437Z,0
2017-12-21T00:15:40.747Z,0
2017-12-21T00:16:40.661Z,0
2017-12-21T00:17:41.590Z,0
2017-12-21T00:18:40.624Z,0
2017-12-21T00:19:40.361Z,0
2017-12-21T00:20:40.958Z,0
2017-12-21T00:21:40.762Z,0
2017-12-21T00:22:40.904Z,0
2017-12-21T00:23:40.295Z,0
2017-12-21T00:24:40.500Z,0
2017-12-21T00:25:40.603Z,0
2017-12-21T00:26:40.815Z,0
2017-12-21T00:27:40.827Z,0
2017-12-21T00:28:40.911Z,0
2017-12-21T00:29:40.263Z,0
2017-12-21T00:30:40.502Z,0
2017-12-21T00:31:40.475Z,0
2017-12-21T00:32:41.021Z,0
2017-12-21T00:33:41.019Z,0
2017-12-21T00:34:40.397Z,0
2017-12-21T00:35:40.108Z,0
2017-12-21T00:36:40.768Z,0
2017-12-21T00:37:40.489Z,0
2017-12-21T00:38:40.437Z,0
2017-12-21T00:39:40.316Z,0
2017-12-21T00:40:40.659Z,0
2017-12-21T00:41:40.746Z,0
2017-12-21T00:42:40.049Z,0
2017-12-21T00:43:40.280Z,0
2017-12-21T00:44:40.588Z,0
2017-12-21T00:45:40.265Z,0
2017-12-21T00:46:40.613Z,0
2017-12-21T00:47:40.585Z,0
2017-12-21T00:48:40.518Z,0
2017-12-21T00:49:40.114Z,0
2017-12-21T00:50:40.804Z,0
2017-12-21T00:51:40.463Z,0
2017-12-21T00:52:39.790Z,0
2017-12-21T00:53:40.509Z,0
2017-12-21T00:54:40.404Z,0
2017-12-21T00:55:39.788Z,0
2017-12-21T00:56:40.055Z,0
2017-12-21T00:57:40.007Z,0
2017-12-21T00:58:40.326Z,0
2017-12-21T00:59:39.761Z,0
2017-12-21T01:00:40.286Z,0
2017-12-21T01:01:39.746Z,0
2017-12-21T01:02:40.077Z,0
2017-12-21T01:03:39.954Z,0
2017-12-21T01:04:40.190Z,0
2017-12-21T01:05:40.602Z,0
2017-12-21T01:06:39.767Z,0
2017-12-21T01:07:40.153Z,0
2017-12-21T01:08:39.585Z,0
2017-12-21T01:09:39.764Z,0
2017-12-21T01:10:40.267Z,0
2017-12-21T01:11:40.155Z,0
2017-12-21T01:12:40.092Z,0
2017-12-21T01:13:39.539Z,0
2017-12-21T01:14:39.687Z,0
2017-12-21T01:15:39.724Z,0
2017-12-21T01:16:40.249Z,0
2017-12-21T01:17:40.062Z,0
2017-12-21T01:18:39.928Z,0
2017-12-21T01:19:39.904Z,0
2017-12-21T01:20:39.576Z,0
2017-12-21T01:21:40.221Z,0
2017-12-21T01:22:39.290Z,0
2017-12-21T01:23:39.368Z,0
2017-12-21T01:24:39.986Z,0
2017-12-21T01:25:39.565Z,0
2017-12-21T01:26:39.523Z,0
2017-12-21T01:27:40.139Z,0
2017-12-21T01:28:39.587Z,0
2017-12-21T01:29:39.627Z,0
2017-12-21T01:30:39.716Z,0
2017-12-21T01:31:39.469Z,0
2017-12-21T01:32:39.173Z,0
2017-12-21T01:33:39.439Z,0
2017-12-21T01:34:39.571Z,0
2017-12-21T01:35:40.045Z,0
2017-12-21T01:36:39.332Z,0
2017-12-21T01:37:39.295Z,0
2017-12-21T01:38:39.369Z,0
2017-12-21T01:39:39.081Z,0
2017-12-21T01:40:39.358Z,0
2017-12-21T01:41:39.312Z,0
2017-12-21T01:42:39.820Z,0
2017-12-21T01:43:39.611Z,0
2017-12-21T01:44:39.532Z,0
2017-12-21T01:45:39.854Z,0
2017-12-21T01:46:39.446Z,0
2017-12-21T01:47:39.321Z,0
2017-12-21T01:48:38.848Z,0
2017-12-21T01:49:38.811Z,0
2017-12-21T01:50:39.459Z,0
2017-12-21T01:51:39.187Z,0
2017-12-21T01:52:39.628Z,0
2017-12-21T01:53:38.871Z,0
2017-12-21T01:54:39.308Z,0
2017-12-21T01:55:39.236Z,0
2017-12-21T01:56:39.344Z,0
2017-12-21T01:57:39.552Z,0
2017-12-21T01:58:39.286Z,0
2017-12-21T01:59:38.625Z,0
2017-12-21T02:00:38.610Z,0
2017-12-21T02:01:39.237Z,0
2017-12-21T02:02:39.053Z,0
2017-12-21T02:03:38.543Z,0
2017-12-21T02:04:39.033Z,0
2017-12-21T02:05:38.522Z,0
2017-12-21T02:06:38.689Z,0
2017-12-21T02:07:39.199Z,0
2017-12-21T02:08:39.053Z,0
2017-12-21T02:09:39.111Z,0
2017-12-21T02:10:38.645Z,0
2017-12-21T02:11:38.709Z,0
2017-12-21T02:12:38.942Z,0
2017-12-21T02:13:38.300Z,0
2017-12-21T02:14:39.510Z,0
2017-12-21T02:15:38.419Z,0
2017-12-21T02:16:38.404Z,0
2017-12-21T02:17:38.671Z,0
2017-12-21T02:18:38.658Z,0
2017-12-21T02:19:38.372Z,0
2017-12-21T02:20:38.614Z,0
2017-12-21T02:21:38.058Z,0
2017-12-21T02:22:38.038Z,0
2017-12-21T02:23:38.363Z,0
2017-12-21T02:24:38.536Z,0
2017-12-21T02:25:38.519Z,0
2017-12-21T02:26:38.521Z,0
2017-12-21T02:27:38.211Z,0
2017-12-21T02:28:37.928Z,0
2017-12-21T02:29:37.925Z,0
2017-12-21T02:30:38.175Z,0
2017-12-21T02:31:38.412Z,0
2017-12-21T02:32:38.400Z,0
2017-12-21T02:33:38.111Z,0
2017-12-21T02:34:38.095Z,0
2017-12-21T02:35:38.620Z,0
2017-12-21T02:36:38.064Z,0
2017-12-21T02:37:38.062Z,0
2017-12-21T02:38:37.751Z,0
2017-12-21T02:39:38.289Z,0
2017-12-21T02:40:38.549Z,0
2017-12-21T02:41:38.241Z,0
2017-12-21T02:42:38.236Z,0
2017-12-21T02:43:38.211Z,0
2017-12-21T02:44:37.987Z,0
2017-12-21T02:45:38.178Z,0
2017-12-21T02:46:38.167Z,0
2017-12-21T02:47:38.141Z,0
2017-12-21T02:48:38.131Z,0
2017-12-21T02:49:38.399Z,0
2017-12-21T02:50:38.387Z,0
2017-12-21T02:51:38.364Z,0
2017-12-21T02:52:37.786Z,0
2017-12-21T02:53:38.325Z,0
2017-12-21T02:54:37.746Z,0
2017-12-21T02:55:38.280Z,0
2017-12-21T02:56:37.733Z,0
2017-12-21T02:57:38.246Z,0
2017-12-21T02:58:37.675Z,0
2017-12-21T02:59:38.292Z,0
2017-12-21T03:00:37.929Z,0
2017-12-21T03:01:37.402Z,0
2017-12-21T03:02:37.879Z,0
2017-12-21T03:03:37.596Z,0
2017-12-21T03:04:38.125Z,0
2017-12-21T03:05:37.830Z,0
2017-12-21T03:06:37.263Z,0
2017-12-21T03:07:37.796Z,0
2017-12-21T03:08:38.315Z,0
2017-12-21T03:09:37.484Z,0
2017-12-21T03:10:37.467Z,0
2017-12-21T03:11:37.178Z,0
2017-12-21T03:12:37.178Z,0
2017-12-21T03:13:37.421Z,0
2017-12-21T03:14:37.511Z,0
2017-12-21T03:15:37.117Z,0
2017-12-21T03:16:37.369Z,0
2017-12-21T03:17:37.903Z,0
2017-12-21T03:18:37.609Z,0
2017-12-21T03:19:37.038Z,0
2017-12-21T03:20:37.312Z,0
2017-12-21T03:21:37.817Z,0
2017-12-21T03:22:37.259Z,0
2017-12-21T03:23:37.528Z,0
2017-12-21T03:24:37.552Z,0
2017-12-21T03:25:37.490Z,0
2017-12-21T03:26:37.457Z,0
2017-12-21T03:27:37.201Z,0
2017-12-21T03:28:37.156Z,0
2017-12-21T03:29:37.139Z,0
2017-12-21T03:30:37.123Z,0
2017-12-21T03:31:37.647Z,0
2017-12-21T03:32:37.091Z,0
2017-12-21T03:33:36.791Z,0
2017-12-21T03:34:37.063Z,0
2017-12-21T03:35:37.328Z,0
2017-12-21T03:36:36.742Z,0
2017-12-21T03:37:37.275Z,0
2017-12-21T03:38:36.717Z,0
2017-12-21T03:39:37.244Z,0
2017-12-21T03:40:36.672Z,0
2017-12-21T03:41:36.663Z,0
2017-12-21T03:42:37.205Z,0
2017-12-21T03:43:36.619Z,0
2017-12-21T03:44:36.603Z,0
2017-12-21T03:45:36.861Z,0
2017-12-21T03:46:37.111Z,0
2017-12-21T03:47:37.094Z,0
2017-12-21T03:48:36.533Z,0
2017-12-21T03:49:37.080Z,0
2017-12-21T03:50:37.037Z,0
2017-12-21T03:51:37.033Z,0
2017-12-21T03:52:36.732Z,0
2017-12-21T03:53:37.264Z,0
2017-12-21T03:54:36.716Z,0
2017-12-21T03:55:36.956Z,0
2017-12-21T03:56:36.681Z,0
2017-12-21T03:57:36.646Z,0
2017-12-21T03:58:36.912Z,0
2017-12-21T03:59:36.617Z,0
2017-12-21T04:00:36.612Z,0
2017-12-21T04:01:36.577Z,0
2017-12-21T04:02:37.123Z,0
2017-12-21T04:03:36.862Z,0
2017-12-21T04:04:36.250Z,0
2017-12-21T04:05:36.508Z,0
2017-12-21T04:06:36.782Z,0
2017-12-21T04:07:36.764Z,0
2017-12-21T04:08:36.725Z,0
2017-12-21T04:09:36.475Z,0
2017-12-21T04:10:36.164Z,0
2017-12-21T04:11:36.419Z,0
2017-12-21T04:12:36.131Z,0
2017-12-21T04:13:36.914Z,0
2017-12-21T04:14:36.626Z,0
2017-12-21T04:15:36.056Z,0
2017-12-21T04:16:36.583Z,0
2017-12-21T04:17:36.570Z,0
2017-12-21T04:18:36.553Z,0
2017-12-21T04:19:36.809Z,0
2017-12-21T04:20:36.543Z,0
2017-12-21T04:21:36.772Z,0
2017-12-21T04:22:36.547Z,0
2017-12-21T04:23:35.919Z,0
2017-12-21T04:24:36.445Z,0
2017-12-21T04:25:36.424Z,0
2017-12-21T04:26:36.137Z,0
2017-12-21T04:27:35.851Z,0
2017-12-21T04:28:36.371Z,0
2017-12-21T04:29:36.106Z,0
2017-12-21T04:30:35.812Z,0
2017-12-21T04:31:35.779Z,0
2017-12-21T04:32:36.038Z,0
2017-12-21T04:33:36.295Z,0
2017-12-21T04:34:36.541Z,0
2017-12-21T04:35:36.263Z,0
2017-12-21T04:36:35.691Z,0
2017-12-21T04:37:36.218Z,0
2017-12-21T04:38:36.201Z,0
2017-12-21T04:39:35.930Z,0
2017-12-21T04:40:35.623Z,0
2017-12-21T04:41:35.879Z,0
2017-12-21T04:42:36.419Z,0
2017-12-21T04:43:35.862Z,0
2017-12-21T04:44:36.131Z,0
2017-12-21T04:45:35.828Z,0
2017-12-21T04:46:35.518Z,0
2017-12-21T04:47:36.081Z,0
2017-12-21T04:48:35.785Z,0
2017-12-21T04:49:35.744Z,0
2017-12-21T04:50:35.453Z,0
2017-12-21T04:51:35.437Z,0
2017-12-21T04:52:35.964Z,0
2017-12-21T04:53:35.942Z,0
2017-12-21T04:54:35.672Z,0
2017-12-21T04:55:35.636Z,0
2017-12-21T04:56:35.892Z,0
2017-12-21T04:57:35.919Z,0
2017-12-21T04:58:36.405Z,0
2017-12-21T04:59:35.845Z,0
2017-12-21T05:00:35.552Z,0
2017-12-21T05:01:35.806Z,0
2017-12-21T05:02:35.519Z,0
2017-12-21T05:03:35.777Z,0
2017-12-21T05:04:35.481Z,0
2017-12-21T05:05:35.733Z,0
2017-12-21T05:06:36.005Z,0
2017-12-21T05:07:35.733Z,0
2017-12-21T05:08:35.705Z,0
2017-12-21T05:09:35.419Z,0
2017-12-21T05:10:35.651Z,0
2017-12-21T05:11:35.632Z,0
2017-12-21T05:12:35.088Z,0
2017-12-21T05:13:35.073Z,0
2017-12-21T05:14:35.051Z,0
2017-12-21T05:15:35.564Z,0
2017-12-21T05:16:35.001Z,0
2017-12-21T05:17:35.812Z,0
2017-12-21T05:18:35.257Z,0
2017-12-21T05:19:35.220Z,0
2017-12-21T05:20:35.202Z,0
2017-12-21T05:21:35.212Z,0
2017-12-21T05:22:35.176Z,0
2017-12-21T05:23:35.426Z,0
2017-12-21T05:24:35.685Z,0
2017-12-21T05:25:35.404Z,0
2017-12-21T05:26:34.846Z,0
2017-12-21T05:27:35.086Z,0
2017-12-21T05:28:35.367Z,0
2017-12-21T05:29:35.066Z,0
2017-12-21T05:30:35.586Z,0
2017-12-21T05:31:35.024Z,0
2017-12-21T05:32:35.003Z,0
2017-12-21T05:33:34.981Z,0
2017-12-21T05:34:34.980Z,0
2017-12-21T05:35:34.944Z,0
2017-12-21T05:36:34.951Z,0
2017-12-21T05:37:35.191Z,0
2017-12-21T05:38:34.641Z,0
2017-12-21T05:39:35.155Z,0
2017-12-21T05:40:34.874Z,0
2017-12-21T05:41:34.901Z,0
2017-12-21T05:42:34.828Z,0
2017-12-21T05:43:34.806Z,0
2017-12-21T05:44:34.520Z,0
2017-12-21T05:45:35.318Z,0
2017-12-21T05:46:35.040Z,0
2017-12-21T05:47:35.309Z,0
2017-12-21T05:48:34.731Z,0
2017-12-21T05:49:34.707Z,0
2017-12-21T05:50:34.707Z,0
2017-12-21T05:51:34.699Z,0
2017-12-21T05:52:34.925Z,0
2017-12-21T05:53:34.910Z,0
2017-12-21T05:54:35.438Z,0
2017-12-21T05:55:34.874Z,0
2017-12-21T05:56:34.583Z,0
2017-12-21T05:57:34.565Z,0
2017-12-21T05:58:34.304Z,0
2017-12-21T05:59:34.804Z,0
2017-12-21T06:00:34.797Z,0
2017-12-21T06:01:34.785Z,0
2017-12-21T06:02:34.507Z,0
2017-12-21T06:03:34.461Z,0
2017-12-21T06:04:34.505Z,0
2017-12-21T06:05:35.243Z,0
2017-12-21T06:06:34.417Z,0
2017-12-21T06:07:35.231Z,0
2017-12-21T06:08:34.378Z,0
2017-12-21T06:09:34.633Z,0
2017-12-21T06:10:34.070Z,0
2017-12-21T06:11:34.596Z,0
2017-12-21T06:12:34.877Z,0
2017-12-21T06:13:34.603Z,0
2017-12-21T06:14:34.273Z,0
2017-12-21T06:15:34.806Z,0
2017-12-21T06:16:34.265Z,0
2017-12-21T06:17:34.786Z,0
2017-12-21T06:18:33.932Z,0
2017-12-21T06:19:34.751Z,0
2017-12-21T06:20:34.171Z,0
2017-12-21T06:21:34.426Z,0
2017-12-21T06:22:34.416Z,0
2017-12-21T06:23:34.137Z,0
2017-12-21T06:24:34.120Z,0
2017-12-21T06:25:34.369Z,0
2017-12-21T06:26:34.633Z,0
2017-12-21T06:27:34.048Z,0
2017-12-21T06:28:34.029Z,0
2017-12-21T06:29:34.024Z,0
2017-12-21T06:30:34.001Z,0
2017-12-21T06:31:34.568Z,0
2017-12-21T06:32:33.692Z,0
2017-12-21T06:33:34.220Z,0
2017-12-21T06:34:33.930Z,0
2017-12-21T06:35:33.906Z,0
2017-12-21T06:36:34.713Z,0
2017-12-21T06:37:33.896Z,0
2017-12-21T06:38:34.146Z,0
2017-12-21T06:39:34.112Z,0
2017-12-21T06:40:33.826Z,0
2017-12-21T06:41:34.361Z,0
2017-12-21T06:42:33.815Z,0
2017-12-21T06:43:33.812Z,0
2017-12-21T06:44:33.755Z,0
2017-12-21T06:45:34.032Z,0
2017-12-21T06:46:34.268Z,0
2017-12-21T06:47:33.432Z,0
2017-12-21T06:48:33.991Z,0
2017-12-21T06:49:33.746Z,0
2017-12-21T06:50:33.654Z,0
2017-12-21T06:51:34.174Z,0
2017-12-21T06:52:33.347Z,0
2017-12-21T06:53:33.913Z,0
2017-12-21T06:54:33.586Z,0
2017-12-21T06:55:33.850Z,0
2017-12-21T06:56:33.833Z,0
2017-12-21T06:57:33.528Z,0
2017-12-21T06:58:33.254Z,0
2017-12-21T06:59:33.243Z,0
2017-12-21T07:00:33.226Z,0
2017-12-21T07:01:33.460Z,0
2017-12-21T07:02:33.722Z,0
2017-12-21T07:03:33.457Z,0
2017-12-21T07:04:33.698Z,0
2017-12-21T07:05:33.129Z,0
2017-12-21T07:06:33.377Z,0
2017-12-21T07:07:33.368Z,0
2017-12-21T07:08:33.340Z,0
2017-12-21T07:09:33.323Z,0
2017-12-21T07:10:33.057Z,0
2017-12-21T07:11:33.836Z,5
2017-12-21T07:12:33.274Z,5
2017-12-21T07:13:33.284Z,5
2017-12-21T07:14:33.510Z,5
2017-12-21T07:15:33.238Z,5
2017-12-21T07:16:32.930Z,5
2017-12-21T07:17:33.469Z,5
2017-12-21T07:18:33.444Z,5
2017-12-21T07:19:33.445Z,5
2017-12-21T07:20:33.136Z,5
2017-12-21T07:21:33.388Z,5
2017-12-21T07:22:33.385Z,10
2017-12-21T07:23:33.354Z,10
2017-12-21T07:24:33.359Z,10
2017-12-21T07:25:33.047Z,10
2017-12-21T07:26:33.049Z,10
2017-12-21T07:27:33.036Z,10
2017-12-21T07:28:33.012Z,10
2017-12-21T07:29:33.266Z,10
2017-12-21T07:30:32.689Z,10
2017-12-21T07:31:32.944Z,10
2017-12-21T07:32:33.203Z,10
2017-12-21T07:33:32.928Z,15
2017-12-21T07:34:32.946Z,15
2017-12-21T07:35:33.170Z,15
2017-12-21T07:36:33.450Z,15
2017-12-21T07:37:32.840Z,15
2017-12-21T07:38:32.827Z,15
2017-12-21T07:39:32.805Z,15
2017-12-21T07:40:33.342Z,15
2017-12-21T07:41:33.054Z,15
2017-12-21T07:42:33.054Z,15
2017-12-21T07:43:32.469Z,15
2017-12-21T07:44:33.024Z,15
2017-12-21T07:45:32.712Z,15
2017-12-21T07:46:32.958Z,20
2017-12-21T07:47:32.672Z,20
2017-12-21T07:48:32.699Z,20
2017-12-21T07:49:32.633Z,20
2017-12-21T07:50:32.641Z,20
2017-12-21T07:51:32.601Z,20
2017-12-21T07:52:32.326Z,20
2017-12-21T07:53:32.587Z,20
2017-12-21T07:54:32.287Z,20
2017-12-21T07:55:32.261Z,20
2017-12-21T07:56:32.261Z,20
2017-12-21T07:57:33.044Z,20
2017-12-21T07:58:33.038Z,20
2017-12-21T07:59:32.466Z,25
2017-12-21T08:00:32.724Z,25
2017-12-21T08:01:32.433Z,25
2017-12-21T08:02:32.414Z,20
2017-12-21T08:03:32.956Z,20
2017-12-21T08:04:32.679Z,20
2017-12-21T08:05:32.365Z,20
2017-12-21T08:06:32.876Z,20
2017-12-21T08:07:32.897Z,25
2017-12-21T08:08:32.330Z,25
2017-12-21T08:09:32.592Z,25
2017-12-21T08:10:32.829Z,25
2017-12-21T08:11:32.531Z,25
2017-12-21T08:12:32.518Z,25
2017-12-21T08:13:32.278Z,25
2017-12-21T08:14:32.225Z,25
2017-12-21T08:15:32.212Z,25
2017-12-21T08:16:32.180Z,30
2017-12-21T08:17:32.202Z,25
2017-12-21T08:18:32.174Z,30
2017-12-21T08:19:32.694Z,25
2017-12-21T08:20:32.671Z,25
2017-12-21T08:21:32.360Z,25
2017-12-21T08:22:31.799Z,25
2017-12-21T08:23:32.075Z,25
2017-12-21T08:24:32.330Z,30
2017-12-21T08:25:32.578Z,30
2017-12-21T08:26:32.006Z,30
2017-12-21T08:27:31.995Z,35
2017-12-21T08:28:32.242Z,40
2017-12-21T08:29:31.950Z,40
2017-12-21T08:30:32.229Z,40
2017-12-21T08:31:31.929Z,45
2017-12-21T08:32:31.630Z,45
2017-12-21T08:33:31.892Z,45
2017-12-21T08:34:32.416Z,45
2017-12-21T08:35:31.582Z,45
2017-12-21T08:36:32.379Z,50
2017-12-21T08:37:31.814Z,50
2017-12-21T08:38:31.804Z,50
2017-12-21T08:39:31.784Z,45
2017-12-21T08:40:32.042Z,45
2017-12-21T08:41:32.032Z,40
2017-12-21T08:42:32.304Z,45
2017-12-21T08:43:31.715Z,45
2017-12-21T08:44:32.293Z,50
2017-12-21T08:45:32.277Z,45
2017-12-21T08:46:32.224Z,40
2017-12-21T08:47:31.938Z,35
2017-12-21T08:48:31.653Z,35
2017-12-21T08:49:31.644Z,35
2017-12-21T08:50:32.152Z,35
2017-12-21T08:51:31.877Z,35
2017-12-21T08:52:32.115Z,40
2017-12-21T08:53:31.277Z,40
2017-12-21T08:54:32.080Z,40
2017-12-21T08:55:31.263Z,40
2017-12-21T08:56:31.777Z,45
2017-12-21T08:57:31.226Z,45
2017-12-21T08:58:32.078Z,40
2017-12-21T08:59:31.994Z,45
2017-12-21T09:00:31.737Z,45
2017-12-21T09:01:31.145Z,45
2017-12-21T09:02:31.973Z,45
2017-12-21T09:03:31.128Z,45
2017-12-21T09:04:31.652Z,40
2017-12-21T09:05:31.078Z,40
2017-12-21T09:06:31.622Z,40
2017-12-21T09:07:31.317Z,45
2017-12-21T09:08:31.579Z,45
2017-12-21T09:09:31.566Z,45
2017-12-21T09:10:31.278Z,45
2017-12-21T09:11:31.266Z,50
2017-12-21T09:12:31.234Z,50
2017-12-21T09:13:31.781Z,55
2017-12-21T09:14:31.754Z,55
2017-12-21T09:15:31.192Z,55
2017-12-21T09:16:30.897Z,60
2017-12-21T09:17:31.153Z,65
2017-12-21T09:18:30.863Z,65
2017-12-21T09:19:31.117Z,65
2017-12-21T09:20:31.098Z,65
2017-12-21T09:21:30.819Z,70
2017-12-21T09:22:30.795Z,70
2017-12-21T09:23:31.325Z,65
2017-12-21T09:24:31.312Z,65
2017-12-21T09:25:31.018Z,60
2017-12-21T09:26:31.316Z,60
2017-12-21T09:27:31.530Z,65
2017-12-21T09:28:30.981Z,65
2017-12-21T09:29:30.680Z,65
2017-12-21T09:30:31.204Z,60
2017-12-21T09:31:30.944Z,60
2017-12-21T09:32:31.174Z,60
2017-12-21T09:33:30.637Z,60
2017-12-21T09:34:30.866Z,60
2017-12-21T09:35:30.581Z,60
2017-12-21T09:36:30.845Z,60
2017-12-21T09:37:30.570Z,60
2017-12-21T09:38:31.093Z,60
2017-12-21T09:39:30.798Z,65
2017-12-21T09:40:31.038Z,65
2017-12-21T09:41:30.756Z,65
2017-12-21T09:42:30.736Z,65
2017-12-21T09:43:30.992Z,70
2017-12-21T09:44:30.752Z,70
2017-12-21T09:45:30.691Z,70
2017-12-21T09:46:30.957Z,70
2017-12-21T09:47:31.227Z,65
2017-12-21T09:48:30.639Z,65
2017-12-21T09:49:30.620Z,70
2017-12-21T09:50:30.333Z,65
2017-12-21T09:51:30.873Z,65
2017-12-21T09:52:30.884Z,60
2017-12-21T09:53:30.309Z,55
2017-12-21T09:54:31.111Z,50
2017-12-21T09:55:31.090Z,50
2017-12-21T09:56:30.543Z,50
2017-12-21T09:57:30.224Z,50
2017-12-21T09:58:30.500Z,50
2017-12-21T09:59:31.031Z,50
2017-12-21T10:00:31.021Z,55
2017-12-21T10:01:30.450Z,55
2017-12-21T10:02:30.427Z,55
2017-12-21T10:03:30.716Z,55
2017-12-21T10:04:30.371Z,50
2017-12-21T10:05:30.394Z,45
2017-12-21T10:06:30.630Z,45
2017-12-21T10:07:30.325Z,45
2017-12-21T10:08:30.366Z,50
2017-12-21T10:09:30.344Z,50
2017-12-21T10:10:30.304Z,50
2017-12-21T10:11:30.569Z,50
2017-12-21T10:12:30.259Z,55
2017-12-21T10:13:30.224Z,50
2017-12-21T10:14:30.756Z,50
2017-12-21T10:15:30.507Z,50
2017-12-21T10:16:30.730Z,50
2017-12-21T10:17:29.908Z,50
2017-12-21T10:18:30.170Z,50
2017-12-21T10:19:30.443Z,55
2017-12-21T10:20:30.647Z,55
2017-12-21T10:21:30.392Z,55
2017-12-21T10:22:30.374Z,55
2017-12-21T10:23:30.073Z,60
2017-12-21T10:24:30.321Z,60
2017-12-21T10:25:30.034Z,60
2017-12-21T10:26:29.759Z,60
2017-12-21T10:27:29.724Z,65
2017-12-21T10:28:30.056Z,65
2017-12-21T10:29:29.985Z,70
2017-12-21T10:30:29.673Z,70
2017-12-21T10:31:29.890Z,80
2017-12-21T10:32:29.913Z,80
2017-12-21T10:33:30.177Z,85
2017-12-21T10:34:29.918Z,85
2017-12-21T10:35:30.138Z,80
2017-12-21T10:36:30.429Z,80
2017-12-21T10:37:30.431Z,85
2017-12-21T10:38:29.820Z,85
2017-12-21T10:39:29.799Z,95
2017-12-21T10:40:30.063Z,95
2017-12-21T10:41:29.769Z,100
2017-12-21T10:42:29.752Z,100
2017-12-21T10:43:30.276Z,100
2017-12-21T10:44:29.465Z,100
2017-12-21T10:45:29.692Z,100
2017-12-21T10:46:29.958Z,100
2017-12-21T10:47:29.932Z,90
2017-12-21T10:48:29.940Z,90
2017-12-21T10:49:29.631Z,90
2017-12-21T10:50:29.679Z,85
2017-12-21T10:51:29.614Z,85
2017-12-21T10:52:29.857Z,85
2017-12-21T10:53:29.585Z,85
2017-12-21T10:54:29.548Z,90
2017-12-21T10:55:29.819Z,85
2017-12-21T10:56:29.819Z,95
2017-12-21T10:57:29.797Z,90
2017-12-21T10:58:29.759Z,95
2017-12-21T10:59:29.733Z,100
2017-12-21T11:00:29.180Z,100
2017-12-21T11:01:30.043Z,100
2017-12-21T11:02:30.018Z,95
2017-12-21T11:03:29.464Z,90
2017-12-21T11:04:29.399Z,95
2017-12-21T11:05:29.102Z,95
2017-12-21T11:06:29.358Z,95
2017-12-21T11:07:29.630Z,90
2017-12-21T11:08:29.344Z,90
2017-12-21T11:09:29.029Z,90
2017-12-21T11:10:29.285Z,85
2017-12-21T11:11:29.546Z,95
2017-12-21T11:12:29.526Z,90
2017-12-21T11:13:29.791Z,90
2017-12-21T11:14:29.490Z,80
2017-12-21T11:15:29.208Z,80
2017-12-21T11:16:29.462Z,75
2017-12-21T11:17:29.465Z,85
2017-12-21T11:18:29.179Z,85
2017-12-21T11:19:29.148Z,90
2017-12-21T11:20:29.402Z,95
2017-12-21T11:21:28.858Z,95
2017-12-21T11:22:29.693Z,100
2017-12-21T11:23:28.803Z,100
2017-12-21T11:24:29.344Z,110
2017-12-21T11:25:29.066Z,110
2017-12-21T11:26:29.036Z,110
2017-12-21T11:27:29.555Z,100
2017-12-21T11:28:29.287Z,100
2017-12-21T11:29:29.264Z,95
2017-12-21T11:30:28.698Z,105
2017-12-21T11:31:29.516Z,115
2017-12-21T11:32:29.208Z,110
2017-12-21T11:33:28.921Z,110
2017-12-21T11:34:28.639Z,110
2017-12-21T11:35:29.168Z,110
2017-12-21T11:36:29.139Z,105
2017-12-21T11:37:28.843Z,100
2017-12-21T11:38:28.855Z,95
2017-12-21T11:39:28.864Z,85
2017-12-21T11:40:28.532Z,80
2017-12-21T11:41:28.815Z,85
2017-12-21T11:42:29.079Z,90
2017-12-21T11:43:28.480Z,95
2017-12-21T11:44:29.078Z,95
2017-12-21T11:45:29.017Z,90
2017-12-21T11:46:28.433Z,80
2017-12-21T11:47:28.685Z,70
2017-12-21T11:48:28.958Z,70
2017-12-21T11:49:28.927Z,75
2017-12-21T11:50:28.641Z,80
2017-12-21T11:51:28.647Z,85
2017-12-21T11:52:28.629Z,85
2017-12-21T11:53:29.153Z,90
2017-12-21T11:54:28.893Z,85
2017-12-21T11:55:29.167Z,75
2017-12-21T11:56:28.291Z,80
2017-12-21T11:57:28.812Z,75
2017-12-21T11:58:28.235Z,80
2017-12-21T11:59:28.784Z,80
2017-12-21T12:00:28.491Z,80
2017-12-21T12:01:28.737Z,75
2017-12-21T12:02:28.447Z,80
2017-12-21T12:03:28.474Z,75
2017-12-21T12:04:28.143Z,75
2017-12-21T12:05:28.674Z,70
2017-12-21T12:06:28.381Z,75
2017-12-21T12:07:28.940Z,75
2017-12-21T12:08:28.745Z,75
2017-12-21T12:09:28.622Z,80
2017-12-21T12:10:28.680Z,75
2017-12-21T12:11:28.343Z,75
2017-12-21T12:12:28.572Z,75
2017-12-21T12:13:28.541Z,80
2017-12-21T12:14:28.257Z,85
2017-12-21T12:15:27.993Z,90
2017-12-21T12:16:28.802Z,90
2017-12-21T12:17:28.206Z,95
2017-12-21T12:18:28.208Z,95
2017-12-21T12:19:28.738Z,90
2017-12-21T12:20:28.169Z,90
2017-12-21T12:21:28.689Z,90
2017-12-21T12:22:28.440Z,90
2017-12-21T12:23:28.390Z,90
2017-12-21T12:24:28.665Z,90
2017-12-21T12:25:27.839Z,85
2017-12-21T12:26:28.357Z,85
2017-12-21T12:27:28.317Z,85
2017-12-21T12:28:28.576Z,75
2017-12-21T12:29:28.292Z,75
2017-12-21T12:30:28.033Z,80
2017-12-21T12:31:28.005Z,80
2017-12-21T12:32:28.258Z,80
2017-12-21T12:33:28.247Z,75
2017-12-21T12:34:27.955Z,70
2017-12-21T12:35:27.921Z,70
2017-12-21T12:36:27.908Z,70
2017-12-21T12:37:28.153Z,65
2017-12-21T12:38:28.463Z,65
2017-12-21T12:39:28.402Z,60
2017-12-21T12:40:28.128Z,60
2017-12-21T12:41:27.583Z,60
2017-12-21T12:42:27.822Z,60
2017-12-21T12:43:28.119Z,60
2017-12-21T12:44:27.784Z,60
2017-12-21T12:45:28.031Z,55
2017-12-21T12:46:28.294Z,60
2017-12-21T12:47:27.467Z,55
2017-12-21T12:48:27.734Z,55
2017-12-21T12:49:27.730Z,50
2017-12-21T12:50:27.679Z,50
2017-12-21T12:51:27.395Z,50
2017-12-21T12:52:27.952Z,45
2017-12-21T12:53:27.949Z,50
2017-12-21T12:54:27.344Z,50
2017-12-21T12:55:27.884Z,45
2017-12-21T12:56:27.579Z,45
2017-12-21T12:57:27.575Z,45
2017-12-21T12:58:27.585Z,40
2017-12-21T12:59:27.546Z,45
2017-12-21T13:00:27.794Z,45
2017-12-21T13:01:27.499Z,45
2017-12-21T13:02:27.759Z,45
2017-12-21T13:03:27.742Z,45
2017-12-21T13:04:28.034Z,45
2017-12-21T13:05:28.266Z,45
2017-12-21T13:06:27.469Z,45
2017-12-21T13:07:27.429Z,45
2017-12-21T13:08:27.432Z,45
2017-12-21T13:09:27.733Z,45
2017-12-21T13:10:27.644Z,40
2017-12-21T13:11:27.357Z,45
2017-12-21T13:12:27.622Z,50
2017-12-21T13:13:27.876Z,55
2017-12-21T13:14:28.109Z,55
2017-12-21T13:15:27.315Z,55
2017-12-21T13:16:27.309Z,55
2017-12-21T13:17:27.245Z,60
2017-12-21T13:18:27.502Z,55
2017-12-21T13:19:26.946Z,55
2017-12-21T13:20:26.931Z,55
2017-12-21T13:21:27.462Z,50
2017-12-21T13:22:27.775Z,45
2017-12-21T13:23:27.213Z,50
2017-12-21T13:24:27.407Z,50
2017-12-21T13:25:26.857Z,45
2017-12-21T13:26:26.844Z,45
2017-12-21T13:27:27.921Z,45
2017-12-21T13:28:27.359Z,50
2017-12-21T13:29:27.687Z,45
2017-12-21T13:30:27.353Z,45
2017-12-21T13:31:27.332Z,45
2017-12-21T13:32:27.297Z,45
2017-12-21T13:33:27.010Z,45
2017-12-21T13:34:27.262Z,40
2017-12-21T13:35:27.519Z,40
2017-12-21T13:36:27.238Z,40
2017-12-21T13:37:26.924Z,35
2017-12-21T13:38:27.471Z,35
2017-12-21T13:39:27.495Z,35
2017-12-21T13:40:27.166Z,35
2017-12-21T13:41:26.616Z,35
2017-12-21T13:42:26.883Z,35
2017-12-21T13:43:26.838Z,35
2017-12-21T13:44:26.558Z,35
2017-12-21T13:45:27.619Z,35
2017-12-21T13:46:27.054Z,35
2017-12-21T13:47:26.769Z,35
2017-12-21T13:48:27.063Z,35
2017-12-21T13:49:27.012Z,30
2017-12-21T13:50:26.714Z,30
2017-12-21T13:51:26.725Z,30
2017-12-21T13:52:27.521Z,30
2017-12-21T13:53:27.225Z,30
2017-12-21T13:54:26.987Z,30
2017-12-21T13:55:26.635Z,30
2017-12-21T13:56:27.162Z,30
2017-12-21T13:57:27.149Z,30
2017-12-21T13:58:26.364Z,30
2017-12-21T13:59:26.311Z,25
2017-12-21T14:00:27.197Z,25
2017-12-21T14:01:26.810Z,25
2017-12-21T14:02:26.250Z,25
2017-12-21T14:03:26.504Z,25
2017-12-21T14:04:26.490Z,25
2017-12-21T14:05:27.091Z,20
2017-12-21T14:06:26.470Z,20
2017-12-21T14:07:26.737Z,20
2017-12-21T14:08:27.010Z,20
2017-12-21T14:09:26.726Z,20
2017-12-21T14:10:26.122Z,20
2017-12-21T14:11:26.400Z,20
2017-12-21T14:12:26.375Z,15
2017-12-21T14:13:26.898Z,15
2017-12-21T14:14:26.661Z,15
2017-12-21T14:15:26.621Z,15
2017-12-21T14:16:26.610Z,15
2017-12-21T14:17:26.293Z,15
2017-12-21T14:18:26.280Z,15
2017-12-21T14:19:26.260Z,15
2017-12-21T14:20:26.277Z,15
2017-12-21T14:21:25.975Z,15
2017-12-21T14:22:26.504Z,15
2017-12-21T14:23:26.451Z,10
2017-12-21T14:24:26.169Z,10
2017-12-21T14:25:26.425Z,10
2017-12-21T14:26:26.680Z,10
2017-12-21T14:27:26.120Z,10
2017-12-21T14:28:26.121Z,10
2017-12-21T14:29:26.965Z,10
2017-12-21T14:30:25.798Z,5